Search for airport 
image banner adimage banner ad
image banner ad

DAAJ - Djanet / Tiska

Located in Djanet, Algeria

ICAO - DAAJ, IATA - DJG

Data provided by Airmate  

General information

Coordinates: N24°17'35" E9°27'7"
Elevation is 3169 feet MSL.
 
Rated:
View ratings: [VIEW]


View others Airports in Illizi Province

Operational data

Open for public use
Current time UTC:
Current local time:
Weather
METAR: DAAJ 070100Z 15005KT CAVOK 26/M03 Q1016
TAF: TAF DAAJ 062300Z 0700/0724 12008KT CAVOK BECMG 0709/0712 22010KT BECMG 0714/0717 06010KT
View NOTAMs / SUP AIP / TFR affecting this airport [VIEW]
Communications frequencies: [VIEW]

Runways:

RWY identifierQFULength (ft)Width (ft)SurfaceLDA (ft)
0222°7874148ASP
20202°7874148
12125°9843148
30305°9843148

Airport contact information

Address: Djanet Algeria

Satellite view of DAAJ